Terminal Aerodrome Forecast
Issued by NWS

Home | Current Version | Previous Version | Text Only | Print | Product List | Glossary On
Versions: 1 2 3 4 5 6 7 8 9 10 11 12 13 14 15
000
FTUS46 KSEW 262320
TAFBLI
TAF
KBLI 262320Z 2700/2724 17010KT P6SM BKN200
     FM270600 17008KT P6SM SCT200
     FM271200 17008KT P6SM OVC020
     FM271700 17013KT P6SM BKN025 BKN200
     FM271900 19009KT P6SM FEW035 SCT200=

USA.gov is the U.S. government's official web portal to all federal, state and local government web resources and services.